sensor_id;sensor_type;location;lat;lon;timestamp;temperature;humidity
14511;DHT22;7341;50.930;4.038;2022-09-27T00:02:10;10.20;99.90
14511;DHT22;7341;50.930;4.038;2022-09-27T00:04:37;10.20;99.90
14511;DHT22;7341;50.930;4.038;2022-09-27T00:07:04;10.20;99.90
14511;DHT22;7341;50.930;4.038;2022-09-27T00:09:31;10.10;99.90
14511;DHT22;7341;50.930;4.038;2022-09-27T00:11:59;10.20;99.90
14511;DHT22;7341;50.930;4.038;2022-09-27T00:14:26;10.20;99.90
14511;DHT22;7341;50.930;4.038;2022-09-27T00:16:55;10.20;99.90
14511;DHT22;7341;50.930;4.038;2022-09-27T00:19:22;10.30;99.90
14511;DHT22;7341;50.930;4.038;2022-09-27T00:21:51;10.40;99.90
14511;DHT22;7341;50.930;4.038;2022-09-27T00:24:20;10.40;99.90
14511;DHT22;7341;50.930;4.038;2022-09-27T00:26:47;10.30;99.90
14511;DHT22;7341;50.930;4.038;2022-09-27T00:29:17;10.30;99.90
14511;DHT22;7341;50.930;4.038;2022-09-27T00:31:44;10.30;99.90
14511;DHT22;7341;50.930;4.038;2022-09-27T00:34:18;10.10;99.90
14511;DHT22;7341;50.930;4.038;2022-09-27T00:36:45;10.10;99.90
14511;DHT22;7341;50.930;4.038;2022-09-27T00:39:12;10.00;99.90
14511;DHT22;7341;50.930;4.038;2022-09-27T00:41:39;10.00;99.90
14511;DHT22;7341;50.930;4.038;2022-09-27T00:47:12;9.90;99.90
14511;DHT22;7341;50.930;4.038;2022-09-27T00:49:44;9.90;99.90
14511;DHT22;7341;50.930;4.038;2022-09-27T00:52:16;10.00;99.90
14511;DHT22;7341;50.930;4.038;2022-09-27T00:54:50;10.00;99.90
14511;DHT22;7341;50.930;4.038;2022-09-27T00:57:20;10.00;99.90
14511;DHT22;7341;50.930;4.038;2022-09-27T00:59:50;10.10;99.90
14511;DHT22;7341;50.930;4.038;2022-09-27T01:02:19;10.00;99.90
14511;DHT22;7341;50.930;4.038;2022-09-27T01:04:48;10.10;99.90
14511;DHT22;7341;50.930;4.038;2022-09-27T01:07:15;10.00;99.90
14511;DHT22;7341;50.930;4.038;2022-09-27T01:09:42;9.80;99.90
14511;DHT22;7341;50.930;4.038;2022-09-27T01:12:14;9.80;99.90
14511;DHT22;7341;50.930;4.038;2022-09-27T01:15:00;9.80;99.90
14511;DHT22;7341;50.930;4.038;2022-09-27T01:17:38;9.90;99.90
14511;DHT22;7341;50.930;4.038;2022-09-27T01:26:08;9.90;99.90
14511;DHT22;7341;50.930;4.038;2022-09-27T01:28:47;10.00;99.90
14511;DHT22;7341;50.930;4.038;2022-09-27T01:31:22;10.00;99.90
14511;DHT22;7341;50.930;4.038;2022-09-27T01:33:57;10.00;99.90
14511;DHT22;7341;50.930;4.038;2022-09-27T01:36:34;9.90;99.90
14511;DHT22;7341;50.930;4.038;2022-09-27T01:39:15;10.00;99.90
14511;DHT22;7341;50.930;4.038;2022-09-27T01:41:54;9.90;99.90
14511;DHT22;7341;50.930;4.038;2022-09-27T01:44:28;9.90;99.90
14511;DHT22;7341;50.930;4.038;2022-09-27T01:47:02;9.90;99.90
14511;DHT22;7341;50.930;4.038;2022-09-27T01:49:34;9.90;99.90
14511;DHT22;7341;50.930;4.038;2022-09-27T01:52:05;9.80;99.90
14511;DHT22;7341;50.930;4.038;2022-09-27T01:54:37;9.80;99.90
14511;DHT22;7341;50.930;4.038;2022-09-27T01:57:06;9.90;99.90
14511;DHT22;7341;50.930;4.038;2022-09-27T01:59:38;9.70;99.90
14511;DHT22;7341;50.930;4.038;2022-09-27T02:02:09;9.60;99.90
14511;DHT22;7341;50.930;4.038;2022-09-27T02:04:39;9.70;99.90
14511;DHT22;7341;50.930;4.038;2022-09-27T02:07:10;9.80;99.90
14511;DHT22;7341;50.930;4.038;2022-09-27T02:09:42;9.80;99.90
14511;DHT22;7341;50.930;4.038;2022-09-27T02:12:14;9.80;99.90
14511;DHT22;7341;50.930;4.038;2022-09-27T02:14:45;9.80;99.90
14511;DHT22;7341;50.930;4.038;2022-09-27T02:17:23;9.70;99.90
14511;DHT22;7341;50.930;4.038;2022-09-27T02:19:55;9.70;99.90
14511;DHT22;7341;50.930;4.038;2022-09-27T02:22:31;9.60;99.90
14511;DHT22;7341;50.930;4.038;2022-09-27T02:25:05;9.70;99.90
14511;DHT22;7341;50.930;4.038;2022-09-27T02:27:39;9.70;99.90
14511;DHT22;7341;50.930;4.038;2022-09-27T02:30:13;9.70;99.90
14511;DHT22;7341;50.930;4.038;2022-09-27T02:32:42;9.70;99.90
14511;DHT22;7341;50.930;4.038;2022-09-27T02:35:13;9.80;99.90
14511;DHT22;7341;50.930;4.038;2022-09-27T02:37:41;9.80;99.90
14511;DHT22;7341;50.930;4.038;2022-09-27T02:40:09;9.80;99.90
14511;DHT22;7341;50.930;4.038;2022-09-27T02:42:36;9.90;99.90
14511;DHT22;7341;50.930;4.038;2022-09-27T02:45:05;9.90;99.90
14511;DHT22;7341;50.930;4.038;2022-09-27T02:47:47;10.00;99.90
14511;DHT22;7341;50.930;4.038;2022-09-27T02:50:40;9.90;99.90
14511;DHT22;7341;50.930;4.038;2022-09-27T02:53:16;10.00;99.90
14511;DHT22;7341;50.930;4.038;2022-09-27T02:55:50;10.10;99.90
14511;DHT22;7341;50.930;4.038;2022-09-27T02:58:27;10.10;99.90
14511;DHT22;7341;50.930;4.038;2022-09-27T03:01:01;10.10;99.90
14511;DHT22;7341;50.930;4.038;2022-09-27T03:03:38;10.10;99.90
14511;DHT22;7341;50.930;4.038;2022-09-27T03:06:10;10.10;99.90
14511;DHT22;7341;50.930;4.038;2022-09-27T03:08:38;10.00;99.90
14511;DHT22;7341;50.930;4.038;2022-09-27T03:11:05;10.10;99.90
14511;DHT22;7341;50.930;4.038;2022-09-27T03:13:33;9.90;99.90
14511;DHT22;7341;50.930;4.038;2022-09-27T03:16:03;9.90;99.90
14511;DHT22;7341;50.930;4.038;2022-09-27T03:18:30;9.90;99.90
14511;DHT22;7341;50.930;4.038;2022-09-27T03:20:58;9.90;99.90
14511;DHT22;7341;50.930;4.038;2022-09-27T03:23:25;9.90;99.90
14511;DHT22;7341;50.930;4.038;2022-09-27T03:25:52;9.90;99.90
14511;DHT22;7341;50.930;4.038;2022-09-27T03:28:19;10.00;99.90
14511;DHT22;7341;50.930;4.038;2022-09-27T03:30:46;10.00;99.90
14511;DHT22;7341;50.930;4.038;2022-09-27T03:33:13;10.10;99.90
14511;DHT22;7341;50.930;4.038;2022-09-27T03:35:41;10.10;99.90
14511;DHT22;7341;50.930;4.038;2022-09-27T03:38:09;10.10;99.90
14511;DHT22;7341;50.930;4.038;2022-09-27T03:40:37;10.00;99.90
14511;DHT22;7341;50.930;4.038;2022-09-27T03:43:04;9.90;99.90
14511;DHT22;7341;50.930;4.038;2022-09-27T03:45:31;9.80;99.90
14511;DHT22;7341;50.930;4.038;2022-09-27T03:47:58;9.80;99.90
14511;DHT22;7341;50.930;4.038;2022-09-27T03:50:27;9.80;99.90
14511;DHT22;7341;50.930;4.038;2022-09-27T03:52:53;9.90;99.90
14511;DHT22;7341;50.930;4.038;2022-09-27T03:55:22;10.00;99.90
14511;DHT22;7341;50.930;4.038;2022-09-27T03:57:49;10.00;99.90
14511;DHT22;7341;50.930;4.038;2022-09-27T04:00:16;10.10;99.90
14511;DHT22;7341;50.930;4.038;2022-09-27T04:02:43;10.10;99.90
14511;DHT22;7341;50.930;4.038;2022-09-27T04:05:10;10.00;99.90
14511;DHT22;7341;50.930;4.038;2022-09-27T04:07:37;10.00;99.90
14511;DHT22;7341;50.930;4.038;2022-09-27T04:10:04;10.00;99.90
14511;DHT22;7341;50.930;4.038;2022-09-27T04:12:34;10.00;99.90
14511;DHT22;7341;50.930;4.038;2022-09-27T04:15:01;10.00;99.90
14511;DHT22;7341;50.930;4.038;2022-09-27T04:17:31;9.90;99.90
14511;DHT22;7341;50.930;4.038;2022-09-27T04:19:58;9.80;99.90
14511;DHT22;7341;50.930;4.038;2022-09-27T04:22:33;9.70;99.90
14511;DHT22;7341;50.930;4.038;2022-09-27T04:25:02;9.60;99.90
14511;DHT22;7341;50.930;4.038;2022-09-27T04:27:29;9.60;99.90
14511;DHT22;7341;50.930;4.038;2022-09-27T04:30:04;9.60;99.90
14511;DHT22;7341;50.930;4.038;2022-09-27T04:32:40;9.60;99.90
14511;DHT22;7341;50.930;4.038;2022-09-27T04:35:10;9.50;99.90
14511;DHT22;7341;50.930;4.038;2022-09-27T04:37:57;9.50;99.90
14511;DHT22;7341;50.930;4.038;2022-09-27T04:40:24;9.50;99.90
14511;DHT22;7341;50.930;4.038;2022-09-27T04:42:52;9.50;99.90
14511;DHT22;7341;50.930;4.038;2022-09-27T04:45:21;9.50;99.90
14511;DHT22;7341;50.930;4.038;2022-09-27T04:47:49;9.50;99.90
14511;DHT22;7341;50.930;4.038;2022-09-27T04:50:17;9.50;99.90
14511;DHT22;7341;50.930;4.038;2022-09-27T04:52:49;9.50;99.90
14511;DHT22;7341;50.930;4.038;2022-09-27T04:55:17;9.50;99.90
14511;DHT22;7341;50.930;4.038;2022-09-27T04:57:44;9.50;99.90
14511;DHT22;7341;50.930;4.038;2022-09-27T05:00:11;9.50;99.90
14511;DHT22;7341;50.930;4.038;2022-09-27T05:02:47;9.50;99.90
14511;DHT22;7341;50.930;4.038;2022-09-27T05:05:14;9.50;99.90
14511;DHT22;7341;50.930;4.038;2022-09-27T05:07:40;9.50;99.90
14511;DHT22;7341;50.930;4.038;2022-09-27T05:10:14;9.50;99.90
14511;DHT22;7341;50.930;4.038;2022-09-27T05:12:44;9.60;99.90
14511;DHT22;7341;50.930;4.038;2022-09-27T05:15:11;9.50;99.90
14511;DHT22;7341;50.930;4.038;2022-09-27T05:17:44;9.40;99.90
14511;DHT22;7341;50.930;4.038;2022-09-27T05:20:12;9.40;99.90
14511;DHT22;7341;50.930;4.038;2022-09-27T05:22:40;9.40;99.90
14511;DHT22;7341;50.930;4.038;2022-09-27T05:25:08;9.40;99.90
14511;DHT22;7341;50.930;4.038;2022-09-27T05:27:35;9.30;99.90
14511;DHT22;7341;50.930;4.038;2022-09-27T05:30:09;9.30;99.90
14511;DHT22;7341;50.930;4.038;2022-09-27T05:32:43;9.30;99.90
14511;DHT22;7341;50.930;4.038;2022-09-27T05:35:14;9.30;99.90
14511;DHT22;7341;50.930;4.038;2022-09-27T05:37:41;9.30;99.90
14511;DHT22;7341;50.930;4.038;2022-09-27T05:40:11;9.30;99.90
14511;DHT22;7341;50.930;4.038;2022-09-27T05:42:40;9.30;99.90
14511;DHT22;7341;50.930;4.038;2022-09-27T05:45:08;9.30;99.90
14511;DHT22;7341;50.930;4.038;2022-09-27T05:47:36;9.30;99.90
14511;DHT22;7341;50.930;4.038;2022-09-27T05:50:04;9.30;99.90
14511;DHT22;7341;50.930;4.038;2022-09-27T05:52:33;9.30;99.90
14511;DHT22;7341;50.930;4.038;2022-09-27T05:55:02;9.30;99.90
14511;DHT22;7341;50.930;4.038;2022-09-27T05:57:29;9.30;99.90
14511;DHT22;7341;50.930;4.038;2022-09-27T05:59:56;9.30;99.90
14511;DHT22;7341;50.930;4.038;2022-09-27T06:02:23;9.30;99.90
14511;DHT22;7341;50.930;4.038;2022-09-27T06:04:50;9.30;99.90
14511;DHT22;7341;50.930;4.038;2022-09-27T06:07:17;9.20;99.90
14511;DHT22;7341;50.930;4.038;2022-09-27T06:09:46;9.20;99.90
14511;DHT22;7341;50.930;4.038;2022-09-27T06:12:13;9.20;99.90
14511;DHT22;7341;50.930;4.038;2022-09-27T06:14:40;9.20;99.90
14511;DHT22;7341;50.930;4.038;2022-09-27T06:17:06;9.20;99.90
14511;DHT22;7341;50.930;4.038;2022-09-27T06:19:33;9.30;99.90
14511;DHT22;7341;50.930;4.038;2022-09-27T06:22:00;9.30;99.90
14511;DHT22;7341;50.930;4.038;2022-09-27T06:24:27;9.30;99.90
14511;DHT22;7341;50.930;4.038;2022-09-27T06:26:55;9.30;99.90
14511;DHT22;7341;50.930;4.038;2022-09-27T06:29:22;9.40;99.90
14511;DHT22;7341;50.930;4.038;2022-09-27T06:31:50;9.50;99.90
14511;DHT22;7341;50.930;4.038;2022-09-27T06:34:17;9.50;99.90
14511;DHT22;7341;50.930;4.038;2022-09-27T06:36:43;9.50;99.90
14511;DHT22;7341;50.930;4.038;2022-09-27T06:39:11;9.60;99.90
14511;DHT22;7341;50.930;4.038;2022-09-27T06:41:38;9.50;99.90
14511;DHT22;7341;50.930;4.038;2022-09-27T06:44:07;9.60;99.90
14511;DHT22;7341;50.930;4.038;2022-09-27T06:46:35;9.60;99.90
14511;DHT22;7341;50.930;4.038;2022-09-27T06:49:02;9.50;99.90
14511;DHT22;7341;50.930;4.038;2022-09-27T06:51:29;9.60;99.90
14511;DHT22;7341;50.930;4.038;2022-09-27T06:53:57;9.70;99.90
14511;DHT22;7341;50.930;4.038;2022-09-27T06:56:25;9.80;99.90
14511;DHT22;7341;50.930;4.038;2022-09-27T06:58:52;9.90;99.90
14511;DHT22;7341;50.930;4.038;2022-09-27T07:01:37;9.90;99.90
14511;DHT22;7341;50.930;4.038;2022-09-27T07:04:05;9.90;99.90
14511;DHT22;7341;50.930;4.038;2022-09-27T07:06:32;9.90;99.90
14511;DHT22;7341;50.930;4.038;2022-09-27T07:09:00;9.90;99.90
14511;DHT22;7341;50.930;4.038;2022-09-27T07:11:27;9.80;99.90
14511;DHT22;7341;50.930;4.038;2022-09-27T07:13:54;9.90;99.90
14511;DHT22;7341;50.930;4.038;2022-09-27T07:16:21;9.90;99.90
14511;DHT22;7341;50.930;4.038;2022-09-27T07:18:50;9.90;99.90
14511;DHT22;7341;50.930;4.038;2022-09-27T07:21:17;9.90;99.90
14511;DHT22;7341;50.930;4.038;2022-09-27T07:23:44;9.90;99.90
14511;DHT22;7341;50.930;4.038;2022-09-27T07:26:11;9.90;99.90
14511;DHT22;7341;50.930;4.038;2022-09-27T07:28:38;9.80;99.90
14511;DHT22;7341;50.930;4.038;2022-09-27T07:31:07;9.80;99.90
14511;DHT22;7341;50.930;4.038;2022-09-27T07:33:34;9.80;99.90
14511;DHT22;7341;50.930;4.038;2022-09-27T07:36:07;9.80;99.90
14511;DHT22;7341;50.930;4.038;2022-09-27T07:38:34;9.80;99.90
14511;DHT22;7341;50.930;4.038;2022-09-27T07:41:05;9.90;99.90
14511;DHT22;7341;50.930;4.038;2022-09-27T07:43:31;9.90;99.90
14511;DHT22;7341;50.930;4.038;2022-09-27T07:45:58;9.90;99.90
14511;DHT22;7341;50.930;4.038;2022-09-27T07:48:25;9.80;99.90
14511;DHT22;7341;50.930;4.038;2022-09-27T07:50:53;9.80;99.90
14511;DHT22;7341;50.930;4.038;2022-09-27T07:53:21;9.80;99.90
14511;DHT22;7341;50.930;4.038;2022-09-27T07:55:50;9.80;99.90
14511;DHT22;7341;50.930;4.038;2022-09-27T07:58:17;9.80;99.90
14511;DHT22;7341;50.930;4.038;2022-09-27T08:00:44;9.80;99.90
14511;DHT22;7341;50.930;4.038;2022-09-27T08:03:13;9.90;99.90
14511;DHT22;7341;50.930;4.038;2022-09-27T08:05:41;9.80;99.90
14511;DHT22;7341;50.930;4.038;2022-09-27T08:08:09;9.90;99.90
14511;DHT22;7341;50.930;4.038;2022-09-27T08:10:37;9.90;99.90
14511;DHT22;7341;50.930;4.038;2022-09-27T08:13:09;9.90;99.90
14511;DHT22;7341;50.930;4.038;2022-09-27T08:15:36;9.80;99.90
14511;DHT22;7341;50.930;4.038;2022-09-27T08:18:04;9.80;99.90
14511;DHT22;7341;50.930;4.038;2022-09-27T08:20:31;9.80;99.90
14511;DHT22;7341;50.930;4.038;2022-09-27T08:22:58;9.80;99.90
14511;DHT22;7341;50.930;4.038;2022-09-27T08:25:25;9.70;99.90
14511;DHT22;7341;50.930;4.038;2022-09-27T08:27:58;9.70;99.90
14511;DHT22;7341;50.930;4.038;2022-09-27T08:30:26;9.70;99.90
14511;DHT22;7341;50.930;4.038;2022-09-27T08:32:56;9.70;99.90
14511;DHT22;7341;50.930;4.038;2022-09-27T08:35:24;9.80;99.90
14511;DHT22;7341;50.930;4.038;2022-09-27T08:37:54;9.80;99.90
14511;DHT22;7341;50.930;4.038;2022-09-27T08:40:22;9.80;99.90
14511;DHT22;7341;50.930;4.038;2022-09-27T08:43:00;9.80;99.90
14511;DHT22;7341;50.930;4.038;2022-09-27T08:45:31;9.70;99.90
14511;DHT22;7341;50.930;4.038;2022-09-27T08:48:02;9.80;99.90
14511;DHT22;7341;50.930;4.038;2022-09-27T08:50:31;9.80;99.90
14511;DHT22;7341;50.930;4.038;2022-09-27T08:53:03;9.80;99.90
14511;DHT22;7341;50.930;4.038;2022-09-27T08:55:34;9.80;99.90
14511;DHT22;7341;50.930;4.038;2022-09-27T08:58:12;9.90;99.90
14511;DHT22;7341;50.930;4.038;2022-09-27T09:00:40;9.90;99.90
14511;DHT22;7341;50.930;4.038;2022-09-27T09:03:17;10.00;99.90
14511;DHT22;7341;50.930;4.038;2022-09-27T09:05:52;10.20;99.90
14511;DHT22;7341;50.930;4.038;2022-09-27T09:08:29;10.30;99.90
14511;DHT22;7341;50.930;4.038;2022-09-27T09:11:06;10.40;99.90
14511;DHT22;7341;50.930;4.038;2022-09-27T09:16:57;10.40;99.90
14511;DHT22;7341;50.930;4.038;2022-09-27T09:19:46;10.60;99.90
14511;DHT22;7341;50.930;4.038;2022-09-27T09:22:33;10.70;99.90
14511;DHT22;7341;50.930;4.038;2022-09-27T09:25:16;10.80;99.90
14511;DHT22;7341;50.930;4.038;2022-09-27T09:27:53;11.00;99.90
14511;DHT22;7341;50.930;4.038;2022-09-27T09:30:30;11.10;99.90
14511;DHT22;7341;50.930;4.038;2022-09-27T09:33:11;11.30;99.90
14511;DHT22;7341;50.930;4.038;2022-09-27T09:35:42;11.40;99.90
14511;DHT22;7341;50.930;4.038;2022-09-27T09:38:16;11.40;99.90
14511;DHT22;7341;50.930;4.038;2022-09-27T09:40:46;11.30;99.90
14511;DHT22;7341;50.930;4.038;2022-09-27T09:43:18;11.40;99.90
14511;DHT22;7341;50.930;4.038;2022-09-27T09:45:49;11.40;99.90
14511;DHT22;7341;50.930;4.038;2022-09-27T09:48:24;11.40;99.90
14511;DHT22;7341;50.930;4.038;2022-09-27T09:50:56;11.50;99.90
14511;DHT22;7341;50.930;4.038;2022-09-27T09:53:33;11.50;99.90
14511;DHT22;7341;50.930;4.038;2022-09-27T09:56:06;11.50;99.90
14511;DHT22;7341;50.930;4.038;2022-09-27T09:58:39;11.60;99.90
14511;DHT22;7341;50.930;4.038;2022-09-27T10:01:18;11.80;99.90
14511;DHT22;7341;50.930;4.038;2022-09-27T10:03:48;11.80;99.90
14511;DHT22;7341;50.930;4.038;2022-09-27T10:06:15;12.00;99.90
14511;DHT22;7341;50.930;4.038;2022-09-27T10:08:42;12.00;99.90
14511;DHT22;7341;50.930;4.038;2022-09-27T10:11:17;12.10;99.90
14511;DHT22;7341;50.930;4.038;2022-09-27T10:13:45;12.20;99.90
14511;DHT22;7341;50.930;4.038;2022-09-27T10:16:16;12.30;99.90
14511;DHT22;7341;50.930;4.038;2022-09-27T10:18:43;12.30;99.90
14511;DHT22;7341;50.930;4.038;2022-09-27T10:21:16;12.30;99.90
14511;DHT22;7341;50.930;4.038;2022-09-27T10:24:09;12.20;99.90
14511;DHT22;7341;50.930;4.038;2022-09-27T10:26:39;12.20;99.90
14511;DHT22;7341;50.930;4.038;2022-09-27T10:29:30;12.30;99.90
14511;DHT22;7341;50.930;4.038;2022-09-27T10:31:59;12.40;99.90
14511;DHT22;7341;50.930;4.038;2022-09-27T10:34:31;12.40;99.90
14511;DHT22;7341;50.930;4.038;2022-09-27T10:37:15;12.50;99.90
14511;DHT22;7341;50.930;4.038;2022-09-27T10:39:43;12.50;99.90
14511;DHT22;7341;50.930;4.038;2022-09-27T10:42:20;12.40;99.90
14511;DHT22;7341;50.930;4.038;2022-09-27T10:44:47;12.10;99.90
14511;DHT22;7341;50.930;4.038;2022-09-27T10:47:19;11.70;99.90
14511;DHT22;7341;50.930;4.038;2022-09-27T10:49:48;11.40;99.90
14511;DHT22;7341;50.930;4.038;2022-09-27T10:52:20;11.10;99.90
14511;DHT22;7341;50.930;4.038;2022-09-27T10:54:53;11.00;99.90
14511;DHT22;7341;50.930;4.038;2022-09-27T10:57:22;11.00;99.90
14511;DHT22;7341;50.930;4.038;2022-09-27T10:59:52;10.90;99.90
14511;DHT22;7341;50.930;4.038;2022-09-27T11:02:23;10.80;99.90
14511;DHT22;7341;50.930;4.038;2022-09-27T11:05:08;10.80;99.90
14511;DHT22;7341;50.930;4.038;2022-09-27T11:07:47;10.90;99.90
14511;DHT22;7341;50.930;4.038;2022-09-27T11:10:27;11.10;99.90
14511;DHT22;7341;50.930;4.038;2022-09-27T11:13:07;11.30;99.90
14511;DHT22;7341;50.930;4.038;2022-09-27T11:15:45;11.60;99.90
14511;DHT22;7341;50.930;4.038;2022-09-27T11:18:23;11.70;99.90
14511;DHT22;7341;50.930;4.038;2022-09-27T11:21:01;11.70;99.90
14511;DHT22;7341;50.930;4.038;2022-09-27T11:23:42;11.80;99.90
14511;DHT22;7341;50.930;4.038;2022-09-27T11:26:25;11.70;99.90
14511;DHT22;7341;50.930;4.038;2022-09-27T11:29:00;11.70;99.90
14511;DHT22;7341;50.930;4.038;2022-09-27T11:31:40;11.50;99.90
14511;DHT22;7341;50.930;4.038;2022-09-27T11:34:27;11.40;99.90
14511;DHT22;7341;50.930;4.038;2022-09-27T11:37:11;11.40;99.90
14511;DHT22;7341;50.930;4.038;2022-09-27T11:39:54;11.40;99.90
14511;DHT22;7341;50.930;4.038;2022-09-27T11:42:48;11.40;99.90
14511;DHT22;7341;50.930;4.038;2022-09-27T11:45:28;11.40;99.90
14511;DHT22;7341;50.930;4.038;2022-09-27T11:48:08;11.60;99.90
14511;DHT22;7341;50.930;4.038;2022-09-27T11:50:54;11.80;99.90
14511;DHT22;7341;50.930;4.038;2022-09-27T11:53:39;12.00;99.90
14511;DHT22;7341;50.930;4.038;2022-09-27T11:56:19;12.20;99.90
14511;DHT22;7341;50.930;4.038;2022-09-27T11:58:58;12.40;99.90
14511;DHT22;7341;50.930;4.038;2022-09-27T12:01:31;12.60;99.90
14511;DHT22;7341;50.930;4.038;2022-09-27T12:07:04;12.70;99.90
14511;DHT22;7341;50.930;4.038;2022-09-27T12:09:37;12.80;99.90
14511;DHT22;7341;50.930;4.038;2022-09-27T12:12:12;12.90;99.90
14511;DHT22;7341;50.930;4.038;2022-09-27T12:14:42;13.10;99.90
14511;DHT22;7341;50.930;4.038;2022-09-27T12:17:13;13.10;99.90
14511;DHT22;7341;50.930;4.038;2022-09-27T12:19:44;13.30;99.90
14511;DHT22;7341;50.930;4.038;2022-09-27T12:22:14;13.30;99.90
14511;DHT22;7341;50.930;4.038;2022-09-27T12:24:43;13.30;99.90
14511;DHT22;7341;50.930;4.038;2022-09-27T12:27:15;13.10;99.90
14511;DHT22;7341;50.930;4.038;2022-09-27T12:29:45;12.60;99.90
14511;DHT22;7341;50.930;4.038;2022-09-27T12:32:16;12.30;99.90
14511;DHT22;7341;50.930;4.038;2022-09-27T12:34:49;12.20;99.90
14511;DHT22;7341;50.930;4.038;2022-09-27T12:37:20;12.00;99.90
14511;DHT22;7341;50.930;4.038;2022-09-27T12:39:53;12.10;99.90
14511;DHT22;7341;50.930;4.038;2022-09-27T12:42:29;12.20;99.90
14511;DHT22;7341;50.930;4.038;2022-09-27T12:44:57;12.40;99.90
14511;DHT22;7341;50.930;4.038;2022-09-27T12:47:35;12.50;99.90
14511;DHT22;7341;50.930;4.038;2022-09-27T12:50:10;12.60;99.90
14511;DHT22;7341;50.930;4.038;2022-09-27T12:52:42;13.00;99.90
14511;DHT22;7341;50.930;4.038;2022-09-27T12:55:30;13.10;99.90
14511;DHT22;7341;50.930;4.038;2022-09-27T13:00:58;13.20;99.90
14511;DHT22;7341;50.930;4.038;2022-09-27T13:03:42;13.40;99.90
14511;DHT22;7341;50.930;4.038;2022-09-27T13:06:34;13.30;99.90
14511;DHT22;7341;50.930;4.038;2022-09-27T13:09:27;13.40;99.90
14511;DHT22;7341;50.930;4.038;2022-09-27T13:12:01;12.90;99.90
14511;DHT22;7341;50.930;4.038;2022-09-27T13:14:41;12.60;99.90
14511;DHT22;7341;50.930;4.038;2022-09-27T13:17:31;12.40;99.90
14511;DHT22;7341;50.930;4.038;2022-09-27T13:19:58;12.40;99.90
14511;DHT22;7341;50.930;4.038;2022-09-27T13:22:43;12.50;99.90
14511;DHT22;7341;50.930;4.038;2022-09-27T13:25:45;12.60;99.90
14511;DHT22;7341;50.930;4.038;2022-09-27T13:28:31;12.90;99.90
14511;DHT22;7341;50.930;4.038;2022-09-27T13:31:00;13.10;99.90
14511;DHT22;7341;50.930;4.038;2022-09-27T13:33:32;13.20;99.90
14511;DHT22;7341;50.930;4.038;2022-09-27T13:36:17;13.30;99.90
14511;DHT22;7341;50.930;4.038;2022-09-27T13:38:54;13.50;99.90
14511;DHT22;7341;50.930;4.038;2022-09-27T13:41:28;13.60;99.90
14511;DHT22;7341;50.930;4.038;2022-09-27T13:44:01;13.50;99.90
14511;DHT22;7341;50.930;4.038;2022-09-27T13:46:45;13.50;99.90
14511;DHT22;7341;50.930;4.038;2022-09-27T13:49:19;13.60;99.90
14511;DHT22;7341;50.930;4.038;2022-09-27T13:51:50;13.80;99.90
14511;DHT22;7341;50.930;4.038;2022-09-27T13:54:49;13.90;99.90
14511;DHT22;7341;50.930;4.038;2022-09-27T13:57:47;14.00;99.90
14511;DHT22;7341;50.930;4.038;2022-09-27T14:00:20;14.00;99.90
14511;DHT22;7341;50.930;4.038;2022-09-27T14:02:57;14.10;99.90
14511;DHT22;7341;50.930;4.038;2022-09-27T14:05:27;14.20;99.90
14511;DHT22;7341;50.930;4.038;2022-09-27T14:07:58;14.10;99.90
14511;DHT22;7341;50.930;4.038;2022-09-27T14:10:28;14.20;99.90
14511;DHT22;7341;50.930;4.038;2022-09-27T14:12:59;14.10;99.90
14511;DHT22;7341;50.930;4.038;2022-09-27T14:15:28;14.00;99.90
14511;DHT22;7341;50.930;4.038;2022-09-27T14:17:57;13.80;99.90
14511;DHT22;7341;50.930;4.038;2022-09-27T14:20:36;13.70;99.90
14511;DHT22;7341;50.930;4.038;2022-09-27T14:23:10;13.50;99.90
14511;DHT22;7341;50.930;4.038;2022-09-27T14:25:44;13.40;99.90
14511;DHT22;7341;50.930;4.038;2022-09-27T14:28:22;12.90;99.90
14511;DHT22;7341;50.930;4.038;2022-09-27T14:31:04;12.40;99.90
14511;DHT22;7341;50.930;4.038;2022-09-27T14:33:34;12.30;99.90
14511;DHT22;7341;50.930;4.038;2022-09-27T14:36:16;12.10;99.90
14511;DHT22;7341;50.930;4.038;2022-09-27T14:39:12;12.00;99.90
14511;DHT22;7341;50.930;4.038;2022-09-27T14:41:40;12.00;99.90
14511;DHT22;7341;50.930;4.038;2022-09-27T14:44:15;11.90;99.90
14511;DHT22;7341;50.930;4.038;2022-09-27T14:46:43;11.90;99.90
14511;DHT22;7341;50.930;4.038;2022-09-27T14:49:18;11.60;99.90
14511;DHT22;7341;50.930;4.038;2022-09-27T14:51:50;11.40;99.90
14511;DHT22;7341;50.930;4.038;2022-09-27T14:54:22;11.10;99.90
14511;DHT22;7341;50.930;4.038;2022-09-27T14:56:51;11.00;99.90
14511;DHT22;7341;50.930;4.038;2022-09-27T14:59:23;10.90;99.90
14511;DHT22;7341;50.930;4.038;2022-09-27T15:01:56;10.90;99.90
14511;DHT22;7341;50.930;4.038;2022-09-27T15:04:29;11.00;99.90
14511;DHT22;7341;50.930;4.038;2022-09-27T15:06:57;11.30;99.90
14511;DHT22;7341;50.930;4.038;2022-09-27T15:09:26;11.60;99.90
14511;DHT22;7341;50.930;4.038;2022-09-27T15:11:56;12.00;99.90
14511;DHT22;7341;50.930;4.038;2022-09-27T15:14:26;12.30;99.90
14511;DHT22;7341;50.930;4.038;2022-09-27T15:16:57;12.30;99.90
14511;DHT22;7341;50.930;4.038;2022-09-27T15:19:32;12.40;99.90
14511;DHT22;7341;50.930;4.038;2022-09-27T15:22:28;12.50;99.90
14511;DHT22;7341;50.930;4.038;2022-09-27T15:27:51;13.30;99.90
14511;DHT22;7341;50.930;4.038;2022-09-27T15:30:25;13.60;99.90
14511;DHT22;7341;50.930;4.038;2022-09-27T15:32:54;14.10;99.90
14511;DHT22;7341;50.930;4.038;2022-09-27T15:35:28;14.50;99.90
14511;DHT22;7341;50.930;4.038;2022-09-27T15:38:25;14.60;99.90
14511;DHT22;7341;50.930;4.038;2022-09-27T15:41:10;14.90;99.90
14511;DHT22;7341;50.930;4.038;2022-09-27T15:43:40;15.20;99.90
14511;DHT22;7341;50.930;4.038;2022-09-27T15:46:32;15.30;99.90
14511;DHT22;7341;50.930;4.038;2022-09-27T15:49:27;15.30;99.90
14511;DHT22;7341;50.930;4.038;2022-09-27T15:52:01;15.10;99.90
14511;DHT22;7341;50.930;4.038;2022-09-27T15:54:30;14.80;99.90
14511;DHT22;7341;50.930;4.038;2022-09-27T15:57:02;14.50;99.90
14511;DHT22;7341;50.930;4.038;2022-09-27T15:59:32;14.30;99.90
14511;DHT22;7341;50.930;4.038;2022-09-27T16:02:01;14.40;99.90
14511;DHT22;7341;50.930;4.038;2022-09-27T16:04:31;14.50;99.90
14511;DHT22;7341;50.930;4.038;2022-09-27T16:07:01;14.40;99.90
14511;DHT22;7341;50.930;4.038;2022-09-27T16:09:30;14.60;99.90
14511;DHT22;7341;50.930;4.038;2022-09-27T16:11:57;14.70;99.90
14511;DHT22;7341;50.930;4.038;2022-09-27T16:14:24;14.90;99.90
14511;DHT22;7341;50.930;4.038;2022-09-27T16:16:53;14.90;99.90
14511;DHT22;7341;50.930;4.038;2022-09-27T16:19:21;14.60;99.90
14511;DHT22;7341;50.930;4.038;2022-09-27T16:21:49;14.50;99.90
14511;DHT22;7341;50.930;4.038;2022-09-27T16:24:17;14.40;99.90
14511;DHT22;7341;50.930;4.038;2022-09-27T16:26:44;14.30;99.90
14511;DHT22;7341;50.930;4.038;2022-09-27T16:29:13;14.30;99.90
14511;DHT22;7341;50.930;4.038;2022-09-27T16:31:41;14.40;99.90
14511;DHT22;7341;50.930;4.038;2022-09-27T16:34:11;14.50;99.90
14511;DHT22;7341;50.930;4.038;2022-09-27T16:36:38;14.50;99.90
14511;DHT22;7341;50.930;4.038;2022-09-27T16:39:06;14.50;99.90
14511;DHT22;7341;50.930;4.038;2022-09-27T16:41:36;14.50;99.90
14511;DHT22;7341;50.930;4.038;2022-09-27T16:44:07;13.90;99.90
14511;DHT22;7341;50.930;4.038;2022-09-27T16:46:38;13.80;99.90